Bradford County (N27)
Towanda, PA
Field Elevation: 730
Lat: 41°44.40N  Long: 76°26.83W
CTAF/Unicom Freq: 123.0000
   
     For Weather-by-Phone, call (570) 265-1024
Weather Advisories
2020-04-01   22:44 Z
Altimeter 29.88" Hg
Wind 340° @ 8 KT
Gusts 14 KT
Visibility 10 SM
Ceiling CLR
Temperature 7° C (45° F)
Dewpoint -6° C (21° F)
Relative Humidity 41%
Density Altitude --
Condensation Altitude 6,800 feet
Wind Chill: 4° C (39° F)
Wind and Runways
Indicated Runway = 05
Headwind = 3 kt
Crosswind = 8 kt
History
 
 
 
More Info
All DigiWx sites map
NOAA Forecast
 
Airport IQ 5010
(LHV) Lock Haven
(PS81) Robert Packer Hospital
 
about DigiWx
 
FAA Disclaimer: The data displayed is for advisory purposes only and is not to be used for flight planning or operations. For official data, please call (570) 265-1024 to hear the current automated AWOS voice message.
  METAR N27 012244Z AUTO 34008G14KT 10 SM CLR 07/M06 A2988